Portada
METAR-TAF:

METAR-TAF

Aeroports :

Air_Force_Base

Plattsburgh, Nova York, Estats Units d'Amèrica

latitud: 44-39N, longitud: 073-28W, altitud: 72 m

Observació

L'informe es va fer fa 20 minuts, a les 19:53 UTC
Vent 3 kt del Oest/Nord-Oest
Temperatura 20°C
Humitat 49%
Pressió 1017 hPa
Visibilitat: 16.1 km
Cel cobert a una alçada de 9000 ft

METAR: KPBG 151953Z AUTO 29003KT 10SM OVC090 20/09 A3003 RMK AO2 SLP171 T02000094

Hora: 16:13 (20:13 UTC)

Pronòstic

L'informe es va fer fa 2 hores i 53 minuts, a les 17:20 UTC
Pronòstic vàlid del 15 a les 18 UTC al 16 a les 18 UTC
Vent 6 kt del Oest/Nord-Oest
Visibilitat: 10 km
Cel ennuvolat a una alçada de 12000 ft
A partir de les 15 a les 2300 UTC
Vent 6 kt del Oest/Nord-Oest
Visibilitat: 10 km
Núvols disperses a una alçada de 15000 ft
A partir de les 16 a les 1500 UTC
Vent 5 kt del Nord
Visibilitat: 10 km
Núvols disperses a una alçada de 15000 ft

TAF: KPBG 151720Z 1518/1618 29006KT P6SM BKN120 FM152300 30006KT P6SM SCT150 FM161500 01005KT P6SM SCT150

Observacions i pronòstics meteorològics de més de 4000 aeroports (METAR i TAF).

Les estacions disponibles són els punts grocs i vermells al mapa.

Posi el ratolí al punt desitjat per veure el nom de l'estació.

Feu clic per veure les observacions i els pronòstics meteorològics.

Per canviar el mapa: feu clic els botons verds amb una creu de color negre per apropar; al botó verd amb un guió per allunyar la imatge; o en les fletxes verdes per a mapes adjacents.


METAR-TAF: